Dougherty, Texas
Current Conditions -  °F | °C
As of 6:15 PM on Monday 24 Nov 2014 (Local Time) from KPVW Reporting Station
Scattered Clouds Scattered Clouds  
Wind Chill: 41°   Ceiling: Unl
Heat Index: 44°   Visibility: 10mi
Dew Point: 19°   Wind: 5mph
Humidity: 37%   Direction: 30°NNE
Pressure: 30.06"   Gusts: NA
Location:  33.94°N, 101.09°W
Report Text: KPVW 250015Z AUTO 03004KT 10SM SCT120 07/M07 A3006 RMK AO2 T00651074
Loading
Personal Weather Stations






























Interactive Weather Map New forecast layout! Learn more

10-Day Weather Forecast

Advertisements
Track Severe Weather on mobile